Time;durP1;ratioP1;P1;durP2;ratioP2;P2;SDS_P1;SDS_P2;PMS_P1;PMS_P2;Temp;Humidity;BMP_temperature;BMP_pressure;BME280_temperature;BME280_humidity;BME280_pressure;Samples;Min_cycle;Max_cycle;Signal;HPM_P1;HPM_P2
2022/11/08 00:03:44;;;;;;;5.90;2.03;;;;;;;9.06;100.00;96592.56;10496292;28;20695;-75
2022/11/08 00:14:03;;;;;;;9.70;1.67;;;;;;;9.02;100.00;96584.22;10496346;28;20191;-74
2022/11/08 00:19:03;;;;;;;4.57;1.40;;;;;;;9.11;100.00;96592.91;10496053;28;20510;-74
2022/11/08 00:24:04;;;;;;;6.77;1.60;;;;;;;9.04;100.00;96589.28;10495681;28;20259;-74
2022/11/08 00:29:04;;;;;;;6.43;1.50;;;;;;;9.21;100.00;96583.22;10495973;28;20190;-75
2022/11/08 00:34:04;;;;;;;4.80;1.47;;;;;;;9.30;100.00;96583.28;10495320;28;20647;-74
2022/11/08 00:39:05;;;;;;;4.67;1.53;;;;;;;9.43;100.00;96588.94;10495142;28;20705;-75
2022/11/08 00:44:05;;;;;;;6.17;1.50;;;;;;;9.46;100.00;96584.22;10494885;28;20219;-75
2022/11/08 00:49:06;;;;;;;6.07;1.60;;;;;;;9.38;100.00;96584.16;10494215;28;20191;-74
2022/11/08 00:54:07;;;;;;;5.43;1.30;;;;;;;9.40;100.00;96579.63;10494842;28;20198;-75
2022/11/08 00:59:11;;;;;;;6.43;1.70;;;;;;;9.43;100.00;96574.09;10493968;28;20195;-75
2022/11/08 01:04:15;;;;;;;4.10;1.37;;;;;;;9.39;100.00;96582.38;10492912;28;20235;-75
2022/11/08 01:09:16;;;;;;;5.30;1.50;;;;;;;9.18;100.00;96567.84;10493768;28;20194;-75
2022/11/08 01:14:16;;;;;;;9.60;1.47;;;;;;;9.19;100.00;96564.25;10493716;28;20563;-75
2022/11/08 01:19:17;;;;;;;3.33;1.43;;;;;;;9.13;100.00;96564.84;10493062;28;20191;-75
2022/11/08 01:24:20;;;;;;;10.13;1.80;;;;;;;8.89;100.00;96550.59;10492813;28;20222;-75
2022/11/08 01:29:20;;;;;;;9.73;1.60;;;;;;;8.85;100.00;96551.06;10492939;28;20245;-75
2022/11/08 01:34:20;;;;;;;10.73;2.13;;;;;;;8.64;100.00;96551.38;10492465;28;20241;-75
2022/11/08 01:39:21;;;;;;;6.43;1.70;;;;;;;8.68;100.00;96544.84;10492971;28;20255;-75
2022/11/08 01:44:21;;;;;;;2.80;1.40;;;;;;;8.76;100.00;96550.19;10492270;28;20215;-75
2022/11/08 01:49:29;;;;;;;7.13;1.40;;;;;;;8.88;100.00;96535.91;10492028;28;20187;-75
2022/11/08 01:55:00;;;;;;;7.13;1.80;;;;;;;8.68;100.00;96532.63;10472200;28;20221;-75
2022/11/08 02:00:05;;;;;;;7.23;1.70;;;;;;;8.43;100.00;96531.53;10425431;28;20207;-75
2022/11/08 02:05:23;;;;;;;5.77;1.60;;;;;;;8.57;100.00;96525.84;10450944;28;20301;-75
2022/11/08 02:10:28;;;;;;;5.00;1.57;;;;;;;8.55;100.00;96517.31;10451193;28;20184;-75
2022/11/08 02:15:29;;;;;;;1.80;1.20;;;;;;;8.59;100.00;96514.41;10450711;28;20187;-75
2022/11/08 02:20:30;;;;;;;4.60;1.30;;;;;;;8.71;100.00;96514.06;10451222;28;20194;-75
2022/11/08 02:25:31;;;;;;;2.27;1.20;;;;;;;8.71;100.00;96519.28;10432777;28;20306;-75
2022/11/08 02:30:33;;;;;;;5.23;1.43;;;;;;;8.65;100.00;96513.81;10417352;28;20206;-74
2022/11/08 02:35:33;;;;;;;6.23;1.60;;;;;;;8.70;100.00;96515.03;10450807;28;20188;-74
2022/11/08 02:40:51;;;;;;;5.07;1.47;;;;;;;8.62;100.00;96512.34;10451165;28;20200;-74
2022/11/08 02:45:52;;;;;;;2.40;1.27;;;;;;;8.64;100.00;96507.78;10450716;28;20314;-75
2022/11/08 02:50:52;;;;;;;2.10;1.30;;;;;;;8.48;100.00;96503.22;10433084;28;20268;-74
2022/11/08 02:55:53;;;;;;;3.03;1.30;;;;;;;8.51;100.00;96500.31;10450388;28;20180;-75
2022/11/08 03:00:53;;;;;;;5.77;1.70;;;;;;;8.51;100.00;96502.91;10443507;28;20196;-74
2022/11/08 03:05:55;;;;;;;4.10;1.47;;;;;;;8.47;100.00;96506.81;10450383;28;20211;-74
2022/11/08 03:10:58;;;;;;;3.40;1.10;;;;;;;8.45;100.00;96507.91;10450793;28;20695;-74
2022/11/08 03:16:04;;;;;;;7.00;1.50;;;;;;;8.27;100.00;96510.47;10450128;28;20199;-74
2022/11/08 03:21:04;;;;;;;4.97;1.30;;;;;;;8.27;100.00;96518.31;10450485;28;20242;-74
2022/11/08 03:26:05;;;;;;;3.10;1.23;;;;;;;8.45;100.00;96510.53;10437382;28;20626;-74
2022/11/08 03:31:05;;;;;;;5.83;1.70;;;;;;;8.30;100.00;96512.78;10496456;28;20209;-74
2022/11/08 03:36:06;;;;;;;3.53;1.27;;;;;;;8.28;100.00;96519.94;10498833;28;20238;-74
2022/11/08 03:41:06;;;;;;;4.37;1.40;;;;;;;8.12;100.00;96521.41;10498944;28;20273;-74
2022/11/08 03:46:07;;;;;;;5.93;1.40;;;;;;;7.98;100.00;96521.91;10480636;28;20230;-74
2022/11/08 03:51:07;;;;;;;4.63;1.40;;;;;;;7.85;100.00;96520.44;10498773;28;20199;-74
2022/11/08 03:56:07;;;;;;;4.37;1.63;;;;;;;7.79;100.00;96509.78;10498071;28;20194;-75
2022/11/08 04:01:08;;;;;;;4.63;1.40;;;;;;;7.68;100.00;96518.59;10498326;28;20210;-74
2022/11/08 04:06:08;;;;;;;4.67;1.77;;;;;;;7.42;100.00;96523.63;10458677;28;20220;-75
2022/11/08 04:16:30;;;;;;;4.67;1.70;;;;;;;7.27;100.00;96516.25;10452049;28;20437;-74
2022/11/08 04:21:31;;;;;;;3.67;1.57;;;;;;;7.22;100.00;96522.84;10452493;28;20204;-74
2022/11/08 04:26:31;;;;;;;5.53;1.50;;;;;;;7.18;100.00;96518.88;10451877;28;20604;-75
2022/11/08 04:31:31;;;;;;;3.20;1.40;;;;;;;7.10;100.00;96517.78;10451974;28;20187;-74
2022/11/08 04:36:32;;;;;;;6.77;1.57;;;;;;;6.94;100.00;96504.53;10451624;28;20235;-74
2022/11/08 04:41:32;;;;;;;5.30;1.93;;;;;;;6.83;100.00;96496.84;10451758;28;20192;-74
2022/11/08 04:46:33;;;;;;;7.13;1.83;;;;;;;6.70;100.00;96507.56;10450907;28;20216;-76
2022/11/08 04:51:33;;;;;;;5.63;2.10;;;;;;;6.47;100.00;96499.19;10451665;28;20204;-75
2022/11/08 04:56:33;;;;;;;3.73;1.93;;;;;;;6.40;100.00;96517.94;10450752;28;20188;-75
2022/11/08 05:01:35;;;;;;;3.97;1.87;;;;;;;6.38;100.00;96509.44;10451564;28;20196;-75
2022/11/08 05:06:35;;;;;;;4.37;1.70;;;;;;;6.38;100.00;96519.03;10457412;28;20764;-75
2022/11/08 05:11:35;;;;;;;5.77;2.27;;;;;;;6.22;100.00;96516.97;10494519;28;20191;-75
2022/11/08 05:16:36;;;;;;;5.23;1.73;;;;;;;6.29;100.00;96522.44;10494610;28;20213;-75
2022/11/08 05:26:55;;;;;;;5.77;1.60;;;;;;;6.33;100.00;96524.63;10493944;28;20872;-75
2022/11/08 05:31:55;;;;;;;4.40;1.70;;;;;;;6.22;100.00;96524.78;10494977;28;20190;-75
2022/11/08 05:36:56;;;;;;;3.17;1.80;;;;;;;6.06;100.00;96520.06;10493874;28;20231;-75
2022/11/08 05:41:56;;;;;;;9.40;1.77;;;;;;;6.02;100.00;96535.13;10494455;28;20273;-75
2022/11/08 05:46:56;;;;;;;2.33;1.63;;;;;;;5.91;100.00;96540.38;10493556;28;20215;-74
2022/11/08 05:51:57;;;;;;;2.23;1.57;;;;;;;5.88;100.00;96545.81;10475605;28;20317;-75
2022/11/08 05:56:57;;;;;;;5.90;1.70;;;;;;;5.90;100.00;96551.75;10493784;28;20183;-75
2022/11/08 06:01:58;;;;;;;5.80;2.33;;;;;;;5.74;100.00;96557.41;10493361;28;20290;-75
2022/11/08 06:06:58;;;;;;;7.27;1.77;;;;;;;5.61;100.00;96541.22;10492711;28;20292;-75
2022/11/08 06:11:58;;;;;;;3.47;1.50;;;;;;;5.60;100.00;96555.16;10493090;28;20210;-75
2022/11/08 06:16:59;;;;;;;6.13;1.57;;;;;;;5.61;100.00;96551.63;10493222;28;20188;-73
2022/11/08 06:21:59;;;;;;;6.40;2.33;;;;;;;5.64;100.00;96548.75;10492971;28;20183;-74
2022/11/08 06:26:59;;;;;;;6.07;2.50;;;;;;;5.60;100.00;96545.59;10492615;28;20687;-75
2022/11/08 06:32:00;;;;;;;8.67;2.53;;;;;;;5.65;100.00;96546.03;10492875;28;20195;-75
2022/11/08 06:37:00;;;;;;;3.30;1.70;;;;;;;5.54;100.00;96546.09;10492202;28;20238;-76
2022/11/08 06:42:01;;;;;;;3.33;2.30;;;;;;;5.58;100.00;96547.50;10492921;28;20188;-75
2022/11/08 06:47:01;;;;;;;2.43;1.73;;;;;;;5.65;100.00;96546.03;10491668;28;20187;-75
2022/11/08 06:52:02;;;;;;;4.77;1.90;;;;;;;5.70;100.00;96537.84;10492335;28;20191;-75
2022/11/08 06:57:02;;;;;;;7.37;2.93;;;;;;;5.78;100.00;96532.00;10492060;28;20195;-75
2022/11/08 07:02:02;;;;;;;5.57;2.10;;;;;;;5.93;100.00;96529.88;10491975;28;20191;-75
2022/11/08 07:07:03;;;;;;;5.93;2.53;;;;;;;6.19;100.00;96531.06;10499773;28;20191;-75
2022/11/08 07:12:03;;;;;;;4.07;2.40;;;;;;;6.60;100.00;96525.78;10500058;28;20237;-75
2022/11/08 07:17:04;;;;;;;5.53;2.40;;;;;;;7.28;100.00;96522.28;10500362;28;20217;-75
2022/11/08 07:22:04;;;;;;;3.27;2.00;;;;;;;7.79;100.00;96514.97;10499710;28;20198;-75
2022/11/08 07:27:04;;;;;;;6.67;2.17;;;;;;;8.59;100.00;96511.81;10499594;28;20274;-75
2022/11/08 07:32:05;;;;;;;6.23;2.30;;;;;;;8.79;100.00;96496.78;10499517;28;20640;-75
2022/11/08 07:37:05;;;;;;;3.57;2.17;;;;;;;9.50;100.00;96489.78;10498504;28;20277;-75
2022/11/08 07:42:05;;;;;;;4.70;2.00;;;;;;;9.75;100.00;96482.88;10499366;28;20179;-75
2022/11/08 07:47:08;;;;;;;3.67;1.83;;;;;;;10.10;100.00;96481.03;10464282;28;20187;-75
2022/11/08 07:52:08;;;;;;;4.20;2.10;;;;;;;10.38;100.00;96478.19;10496934;28;20195;-75
2022/11/08 07:57:09;;;;;;;4.90;1.80;;;;;;;10.59;100.00;96468.06;10497226;28;20717;-76
2022/11/08 08:02:10;;;;;;;4.95;2.28;;;;;;;11.14;100.00;96463.16;10504664;28;20195;-76
2022/11/08 08:07:11;;;;;;;6.70;2.47;;;;;;;11.12;100.00;96457.22;10496126;28;20222;-75
2022/11/08 08:12:12;;;;;;;3.30;1.80;;;;;;;11.80;100.00;96436.72;10496129;28;20958;-75
2022/11/08 08:17:12;;;;;;;6.75;2.15;;;;;;;11.55;100.00;96442.06;10495508;28;20284;-75
2022/11/08 08:22:13;;;;;;;4.60;1.77;;;;;;;12.41;95.64;96423.78;10495358;28;20240;-75
2022/11/08 08:27:13;;;;;;;5.50;2.08;;;;;;;12.19;95.17;96431.47;10495268;28;20282;-75
2022/11/08 08:32:13;;;;;;;4.32;1.63;;;;;;;12.91;91.47;96408.41;10495533;28;20191;-75
2022/11/08 08:37:15;;;;;;;11.93;2.28;;;;;;;13.17;88.36;96393.03;10494166;28;20249;-75
2022/11/08 08:42:16;;;;;;;3.00;1.38;;;;;;;13.38;86.79;96394.16;10495542;28;20198;-75
2022/11/08 08:47:16;;;;;;;3.75;1.40;;;;;;;13.70;84.71;96381.59;10494562;28;20210;-75
2022/11/08 08:52:16;;;;;;;2.85;1.55;;;;;;;14.23;82.81;96373.47;10494726;28;20240;-76
2022/11/08 08:57:17;;;;;;;6.15;1.42;;;;;;;14.56;81.11;96363.25;10493518;28;20188;-76
2022/11/08 09:02:17;;;;;;;3.38;1.58;;;;;;;14.47;80.18;96355.66;10494186;28;20223;-76
2022/11/08 09:07:17;;;;;;;3.40;1.90;;;;;;;13.31;83.66;96393.25;10493706;28;20667;-75
2022/11/08 09:12:18;;;;;;;4.15;1.42;;;;;;;13.51;83.88;96396.16;10493562;28;20584;-76
2022/11/08 09:17:18;;;;;;;5.78;2.10;;;;;;;12.94;86.57;96421.19;10491638;28;20675;-76
2022/11/08 09:22:19;;;;;;;4.07;2.00;;;;;;;13.45;84.85;96397.69;10493231;28;20563;-76
2022/11/08 09:27:19;;;;;;;3.60;2.08;;;;;;;13.22;83.65;96394.31;10474933;28;20195;-76
2022/11/08 09:32:20;;;;;;;2.65;2.33;;;;;;;13.34;83.94;96392.91;10474172;28;20196;-76
2022/11/08 09:37:21;;;;;;;5.10;2.15;;;;;;;13.24;85.17;96418.63;10492710;28;20645;-76
2022/11/08 09:42:33;;;;;;;7.15;2.08;;;;;;;13.37;84.74;96400.44;10492470;28;20252;-76
2022/11/08 09:47:38;;;;;;;5.15;2.03;;;;;;;14.12;81.15;96363.41;10474010;28;20183;-76
2022/11/08 09:52:40;;;;;;;7.57;1.85;;;;;;;14.74;78.21;96351.44;10433069;28;20733;-77
2022/11/08 09:58:07;;;;;;;3.10;1.60;;;;;;;15.20;75.15;96313.97;10432936;28;20191;-77
2022/11/08 10:03:13;;;;;;;4.38;1.65;;;;;;;14.62;76.73;96337.94;10476571;28;20419;-78
2022/11/08 10:08:32;;;;;;;2.15;1.30;;;;;;;14.83;75.51;96329.19;10473798;28;20199;-76
2022/11/08 10:13:58;;;;;;;5.22;1.40;;;;;;;14.47;74.48;96309.00;10473746;28;20278;-77
2022/11/08 10:19:17;;;;;;;3.22;0.98;;;;;;;14.10;74.03;96303.03;10473751;28;20179;-76
2022/11/08 10:24:38;;;;;;;2.40;1.20;;;;;;;14.05;74.16;96329.13;10490791;28;20280;-77
2022/11/08 10:29:42;;;;;;;2.85;1.40;;;;;;;14.63;72.55;96302.69;10473008;28;20194;-77
2022/11/08 10:34:52;;;;;;;3.22;1.15;;;;;;;14.52;71.93;96284.75;10490864;28;20647;-77
2022/11/08 10:39:57;;;;;;;2.03;1.10;;;;;;;15.04;70.45;96266.81;10472586;28;20384;-76
2022/11/08 10:44:58;;;;;;;3.58;1.48;;;;;;;15.24;68.92;96243.16;10472154;28;20222;-77
2022/11/08 10:49:58;;;;;;;2.65;1.40;;;;;;;14.73;69.39;96242.53;10490785;28;20579;-78
2022/11/08 10:55:00;;;;;;;2.65;1.40;;;;;;;15.11;69.40;96247.34;10490373;28;20183;-77
2022/11/08 11:00:18;;;;;;;5.45;1.40;;;;;;;14.82;68.84;96229.97;10472209;28;20222;-77
2022/11/08 11:05:23;;;;;;;3.45;1.25;;;;;;;15.11;69.40;96246.56;10488075;28;20219;-76
2022/11/08 11:10:27;;;;;;;3.15;1.30;;;;;;;15.48;67.23;96204.84;10469293;28;20188;-76
2022/11/08 11:15:37;;;;;;;1.58;1.00;;;;;;;14.75;66.99;96184.31;10490111;28;20199;-77
2022/11/08 11:20:38;;;;;;;2.15;1.40;;;;;;;14.32;68.73;96205.50;10471687;28;20183;-76
2022/11/08 11:25:49;;;;;;;4.15;1.65;;;;;;;14.48;68.74;96214.97;10472129;28;20603;-76
2022/11/08 11:30:59;;;;;;;2.08;1.30;;;;;;;13.81;70.29;96214.44;10472135;28;20635;-76
2022/11/08 11:36:06;;;;;;;3.63;1.38;;;;;;;13.42;70.80;96216.50;10489274;28;20251;-76
2022/11/08 11:41:16;;;;;;;5.22;1.17;;;;;;;13.17;71.91;96243.13;10437733;28;21047;-76
2022/11/08 11:46:21;;;;;;;2.90;1.27;;;;;;;13.34;71.19;96240.31;10464640;28;20215;-76
2022/11/08 11:51:25;;;;;;;1.77;1.20;;;;;;;13.25;71.53;96236.94;10460679;28;20183;-75
2022/11/08 11:56:46;;;;;;;2.63;1.45;;;;;;;13.39;72.34;96232.66;10475139;28;20884;-75
2022/11/08 12:02:05;;;;;;;4.97;1.48;;;;;;;13.55;70.55;96211.38;10476812;28;20187;-76
2022/11/08 12:07:18;;;;;;;4.38;1.30;;;;;;;13.67;71.00;96202.97;10496244;28;20218;-76
2022/11/08 12:12:38;;;;;;;2.90;1.33;;;;;;;13.55;71.12;96206.13;10477791;28;20568;-77
2022/11/08 12:18:06;;;;;;;3.13;1.70;;;;;;;13.83;71.07;96215.91;10496470;28;20643;-76
2022/11/08 12:23:17;;;;;;;2.08;1.10;;;;;;;13.75;70.90;96194.94;10495632;28;20215;-75
2022/11/08 12:28:50;;;;;;;3.20;1.67;;;;;;;14.04;70.40;96187.91;10477571;28;20483;-75
2022/11/08 12:34:09;;;;;;;2.85;1.73;;;;;;;13.81;70.02;96173.13;10456575;28;20659;-75
2022/11/08 12:39:15;;;;;;;3.15;1.52;;;;;;;14.17;69.43;96171.38;10495374;28;20622;-76
2022/11/08 12:44:43;;;;;;;3.72;1.98;;;;;;;14.23;68.78;96168.78;10474629;28;20226;-76
2022/11/08 12:49:50;;;;;;;3.13;1.65;;;;;;;13.96;69.92;96177.50;10499004;28;20281;-75
2022/11/08 12:54:52;;;;;;;3.72;1.50;;;;;;;14.36;69.43;96185.69;10469597;28;20250;-77
2022/11/08 13:00:13;;;;;;;3.42;1.65;;;;;;;13.85;69.95;96189.38;10480558;28;20234;-75
2022/11/08 13:05:34;;;;;;;3.25;1.40;;;;;;;14.40;69.54;96187.75;10451259;28;20643;-76
2022/11/08 13:10:42;;;;;;;1.83;1.20;;;;;;;14.55;67.36;96150.72;10435091;28;20191;-75
2022/11/08 13:16:21;;;;;;;1.35;1.20;;;;;;;13.81;68.77;96154.69;10459874;28;20609;-76
2022/11/08 13:21:24;;;;;;;2.25;1.77;;;;;;;12.96;71.50;96199.19;10476029;28;20224;-75
2022/11/08 13:26:25;;;;;;;2.22;1.50;;;;;;;12.71;72.85;96206.56;10493236;28;20329;-76
2022/11/08 13:31:31;;;;;;;2.92;2.05;;;;;;;12.56;73.35;96211.00;10475851;28;20568;-76
2022/11/08 13:36:41;;;;;;;2.22;1.58;;;;;;;12.62;74.51;96231.31;10492461;28;20316;-75
2022/11/08 13:42:12;;;;;;;2.25;1.20;;;;;;;12.99;72.54;96190.91;10492632;28;20202;-75
2022/11/08 13:47:35;;;;;;;5.07;1.80;;;;;;;12.74;73.96;96193.06;10492078;28;20231;-75
2022/11/08 13:53:00;;;;;;;2.05;1.40;;;;;;;12.60;74.98;96185.97;10478427;28;20689;-74
2022/11/08 13:58:01;;;;;;;2.40;1.35;;;;;;;12.44;75.78;96194.88;10474321;28;20187;-75
2022/11/08 14:03:01;;;;;;;2.92;1.33;;;;;;;12.28;76.52;96194.06;10491383;28;20223;-75
2022/11/08 14:08:15;;;;;;;5.07;2.10;;;;;;;12.09;78.43;96202.44;10473832;28;20582;-76
2022/11/08 14:13:22;;;;;;;4.65;2.25;;;;;;;12.21;78.84;96201.00;10473341;28;20707;-75
2022/11/08 14:18:31;;;;;;;5.30;2.58;;;;;;;12.12;79.70;96202.88;10472775;28;20563;-75
2022/11/08 14:23:34;;;;;;;4.75;2.78;;;;;;;12.16;79.12;96197.28;10456908;28;20246;-75
2022/11/08 14:28:37;;;;;;;4.65;2.33;;;;;;;12.05;79.82;96209.88;10473127;28;20286;-75
2022/11/08 14:34:18;;;;;;;6.25;2.45;;;;;;;11.70;81.10;96216.50;10491016;28;20651;-75
2022/11/08 14:39:32;;;;;;;12.68;7.55;;;;;;;11.61;82.41;96223.63;10403959;23;20294;-75
2022/11/08 14:44:33;;;;;;;4.47;2.88;;;;;;;11.53;82.92;96232.38;10349604;28;20319;-75
2022/11/08 14:49:35;;;;;;;5.13;3.05;;;;;;;11.40;83.51;96242.63;10348767;28;20683;-75
2022/11/08 14:54:40;;;;;;;8.88;4.70;;;;;;;11.36;84.76;96265.75;10366869;28;20205;-76
2022/11/08 14:59:40;;;;;;;5.63;3.33;;;;;;;11.21;85.74;96257.00;10349673;28;21009;-75
2022/11/08 15:04:41;;;;;;;8.52;4.65;;;;;;;11.14;86.08;96258.66;10349357;28;20216;-75
2022/11/08 15:09:41;;;;;;;12.50;4.72;;;;;;;10.97;87.37;96252.69;10365635;28;20196;-75
2022/11/08 15:14:58;;;;;;;11.52;5.50;;;;;;;10.95;87.93;96239.75;10349228;28;20288;-75
2022/11/08 15:20:20;;;;;;;6.30;3.50;;;;;;;10.74;90.01;96245.53;10349071;28;20257;-75
2022/11/08 15:25:27;;;;;;;17.07;6.40;;;;;;;10.62;90.75;96247.69;10368478;28;20335;-75
2022/11/08 15:30:27;;;;;;;7.23;4.23;;;;;;;10.59;91.40;96255.09;10357411;28;20201;-75
2022/11/08 15:35:35;;;;;;;29.93;16.90;;;;;;;10.60;92.21;96247.06;10373866;28;20208;-75
2022/11/08 15:40:36;;;;;;;96.20;41.70;;;;;;;10.53;93.30;96246.94;10373910;28;20817;-75
2022/11/08 15:45:51;;;;;;;26.23;13.03;;;;;;;10.61;93.95;96253.94;10340266;28;20221;-75
2022/11/08 15:50:53;;;;;;;7.23;3.77;;;;;;;10.75;94.04;96259.47;10356567;28;20203;-75
2022/11/08 15:55:56;;;;;;;12.27;5.10;;;;;;;10.65;94.94;96260.47;10408190;28;20218;-74
2022/11/08 16:00:59;;;;;;;9.30;5.87;;;;;;;10.50;96.81;96252.47;10437802;28;20260;-74
2022/11/08 16:05:59;;;;;;;5.30;2.77;;;;;;;10.54;97.25;96258.22;10437316;28;20228;-74
2022/11/08 16:11:00;;;;;;;7.07;3.50;;;;;;;10.80;95.71;96242.25;10418080;28;20556;-74
2022/11/08 16:16:03;;;;;;;10.10;3.63;;;;;;;10.95;95.68;96231.88;10413509;28;20180;-74
2022/11/08 16:21:03;;;;;;;7.50;3.63;;;;;;;10.92;95.78;96249.72;10381096;28;20196;-74
2022/11/08 16:26:06;;;;;;;8.80;3.90;;;;;;;10.86;95.98;96225.84;10391575;28;20209;-74
2022/11/08 16:31:10;;;;;;;6.23;3.97;;;;;;;10.85;96.70;96239.13;10404130;28;20193;-74
2022/11/08 16:36:17;;;;;;;8.30;4.90;;;;;;;10.87;96.32;96237.13;10394760;28;20700;-74
2022/11/08 16:41:18;;;;;;;6.20;3.20;;;;;;;10.90;96.43;96234.19;10412575;28;20668;-74
2022/11/08 16:46:20;;;;;;;5.83;3.67;;;;;;;10.93;96.69;96230.41;10411111;28;20220;-74
2022/11/08 16:51:20;;;;;;;8.20;4.13;;;;;;;10.96;96.10;96225.63;10393809;28;20648;-74
2022/11/08 16:56:21;;;;;;;7.55;4.97;;;;;;;10.94;95.40;96221.56;10411609;28;20195;-74
2022/11/08 17:01:29;;;;;;;6.43;3.80;;;;;;;10.96;94.61;96225.63;10376961;28;20197;-74
2022/11/08 17:06:29;;;;;;;8.17;4.10;;;;;;;10.86;93.98;96210.13;10353315;28;20217;-74
2022/11/08 17:11:52;;;;;;;5.23;2.57;;;;;;;10.91;95.19;96219.28;10380913;28;20666;-76
2022/11/08 17:16:53;;;;;;;7.90;3.90;;;;;;;10.76;95.97;96242.75;10387728;28;20563;-75
2022/11/08 17:21:54;;;;;;;7.83;4.43;;;;;;;10.49;97.58;96229.91;10370731;28;20200;-74
2022/11/08 17:26:54;;;;;;;11.77;6.30;;;;;;;10.42;99.17;96243.84;10375333;28;20208;-74
2022/11/08 17:31:55;;;;;;;9.63;3.73;;;;;;;10.45;98.42;96243.50;10403921;28;20199;-74
2022/11/08 17:36:55;;;;;;;8.07;3.90;;;;;;;10.61;96.30;96240.84;10410169;28;20289;-74
2022/11/08 17:41:55;;;;;;;5.13;2.90;;;;;;;10.58;96.14;96225.47;10410053;28;20661;-74
2022/11/08 17:46:56;;;;;;;4.97;3.03;;;;;;;10.57;95.85;96236.94;10425415;28;20212;-74
2022/11/08 17:51:56;;;;;;;6.97;3.10;;;;;;;10.53;95.16;96230.38;10433091;28;20199;-74
2022/11/08 17:56:57;;;;;;;9.13;3.60;;;;;;;10.51;95.69;96237.59;10451208;28;20302;-74
2022/11/08 18:01:57;;;;;;;8.47;3.97;;;;;;;10.47;95.09;96236.28;10451530;28;20552;-74
2022/11/08 18:06:57;;;;;;;5.37;3.20;;;;;;;10.46;95.14;96250.34;10451200;28;20218;-74
2022/11/08 18:11:58;;;;;;;5.93;3.43;;;;;;;10.50;94.49;96230.72;10451457;28;20188;-74
2022/11/08 18:16:58;;;;;;;8.53;2.97;;;;;;;10.52;94.14;96228.72;10433143;28;20240;-74
2022/11/08 18:21:59;;;;;;;10.43;2.70;;;;;;;10.50;94.60;96230.72;10450818;28;20199;-75
2022/11/08 18:26:59;;;;;;;6.07;3.83;;;;;;;10.51;94.65;96222.69;10450638;28;20224;-74
2022/11/08 18:32:00;;;;;;;5.97;3.40;;;;;;;10.60;94.00;96226.09;10450151;28;20200;-75
2022/11/08 18:37:01;;;;;;;5.73;2.53;;;;;;;10.58;94.01;96217.63;10450211;28;20235;-75
2022/11/08 18:42:01;;;;;;;6.37;3.30;;;;;;;10.52;94.36;96213.03;10449994;28;20715;-75
2022/11/08 18:47:01;;;;;;;4.50;2.27;;;;;;;10.58;93.79;96212.38;10450048;28;20687;-75
2022/11/08 18:52:02;;;;;;;2.77;2.30;;;;;;;10.65;92.71;96199.41;10449989;28;20191;-75
2022/11/08 18:57:02;;;;;;;3.40;1.97;;;;;;;10.75;92.14;96184.31;10448662;28;20187;-74
2022/11/08 19:02:03;;;;;;;7.27;2.80;;;;;;;10.76;92.14;96198.22;10458457;28;20302;-75
2022/11/08 19:07:03;;;;;;;4.57;2.42;;;;;;;10.76;90.91;96182.50;10457897;28;20719;-74
2022/11/08 19:12:04;;;;;;;6.43;2.70;;;;;;;10.79;90.15;96171.69;10458279;28;20184;-74
2022/11/08 19:17:05;;;;;;;3.67;2.10;;;;;;;10.85;88.88;96177.03;10457391;28;20560;-74
2022/11/08 19:22:05;;;;;;;3.70;2.43;;;;;;;10.81;88.00;96173.16;10457867;28;20184;-74
2022/11/08 19:27:05;;;;;;;6.27;2.17;;;;;;;10.97;86.15;96168.81;10457338;28;20804;-74
2022/11/08 19:32:06;;;;;;;2.53;2.20;;;;;;;10.98;85.51;96170.41;10457013;28;20560;-75
2022/11/08 19:37:06;;;;;;;6.87;2.33;;;;;;;10.92;86.04;96177.19;10456759;28;20583;-74
2022/11/08 19:42:07;;;;;;;4.40;2.07;;;;;;;10.92;86.08;96182.44;10456592;28;20202;-74
2022/11/08 19:47:07;;;;;;;4.93;1.90;;;;;;;10.95;85.65;96187.34;10446745;28;20219;-75
2022/11/08 19:52:07;;;;;;;3.43;1.60;;;;;;;11.03;85.46;96184.66;10415017;28;20184;-75
2022/11/08 19:57:08;;;;;;;2.40;1.67;;;;;;;10.98;85.63;96197.47;10414511;28;20188;-75
2022/11/08 20:02:08;;;;;;;2.40;2.00;;;;;;;10.93;85.77;96198.97;10413063;28;20794;-75
2022/11/08 20:07:09;;;;;;;2.30;2.03;;;;;;;10.91;86.35;96203.56;10396214;28;20231;-75
2022/11/08 20:12:09;;;;;;;3.33;1.83;;;;;;;10.77;86.56;96205.91;10413659;28;20570;-75
2022/11/08 20:17:09;;;;;;;3.23;1.83;;;;;;;10.78;86.97;96211.97;10413958;28;20600;-74
2022/11/08 20:22:10;;;;;;;4.10;1.53;;;;;;;10.71;86.60;96202.16;10414222;28;20193;-74
2022/11/08 20:27:10;;;;;;;3.20;1.97;;;;;;;10.86;84.85;96197.03;10413588;28;20221;-74
2022/11/08 20:32:11;;;;;;;3.03;1.60;;;;;;;11.08;82.98;96184.13;10413123;28;20196;-74
2022/11/08 20:37:13;;;;;;;3.03;1.35;;;;;;;11.14;82.15;96183.44;10413359;28;20587;-74
2022/11/08 20:42:17;;;;;;;3.70;1.60;;;;;;;11.16;81.75;96194.56;10412739;28;20271;-74
2022/11/08 20:47:18;;;;;;;3.73;1.80;;;;;;;11.03;82.37;96179.41;10412795;28;20680;-74
2022/11/08 20:52:21;;;;;;;2.03;1.47;;;;;;;10.99;83.41;96212.19;10400249;28;20189;-74
2022/11/08 20:57:21;;;;;;;1.67;1.57;;;;;;;10.89;84.39;96194.06;10371384;28;20189;-74
2022/11/08 21:02:22;;;;;;;7.33;2.47;;;;;;;10.81;85.46;96214.25;10353961;28;20252;-74
2022/11/08 21:07:22;;;;;;;3.50;2.10;;;;;;;10.89;85.02;96209.78;10371055;28;20221;-74
2022/11/08 21:12:22;;;;;;;4.63;2.43;;;;;;;10.74;86.66;96215.91;10371325;28;20538;-74
2022/11/08 21:17:23;;;;;;;6.43;3.33;;;;;;;10.63;87.49;96232.81;10371162;28;20189;-74
2022/11/08 21:22:23;;;;;;;7.77;3.20;;;;;;;10.58;88.64;96238.56;10370771;28;20200;-75
2022/11/08 21:27:24;;;;;;;6.83;2.87;;;;;;;10.65;89.05;96242.13;10371536;28;20229;-75
2022/11/08 21:32:24;;;;;;;6.73;3.73;;;;;;;10.64;88.96;96231.81;10371260;28;20193;-74
2022/11/08 21:37:25;;;;;;;5.77;2.90;;;;;;;10.55;89.51;96238.91;10370509;28;20312;-74
2022/11/08 21:42:25;;;;;;;4.97;2.93;;;;;;;10.55;89.65;96224.97;10371368;28;20197;-75
2022/11/08 21:47:25;;;;;;;5.93;2.93;;;;;;;10.55;89.83;96227.59;10370859;28;20304;-75
2022/11/08 21:52:26;;;;;;;6.90;3.40;;;;;;;10.56;89.65;96219.56;10370263;28;20259;-75
2022/11/08 21:57:26;;;;;;;6.43;2.70;;;;;;;10.55;89.96;96235.44;10370307;28;20276;-74
2022/11/08 22:02:26;;;;;;;5.43;3.03;;;;;;;10.51;89.56;96235.78;10370562;28;20243;-75
2022/11/08 22:07:27;;;;;;;5.00;2.50;;;;;;;10.55;89.62;96220.56;10369753;28;20690;-74
2022/11/08 22:12:27;;;;;;;4.27;2.87;;;;;;;10.56;89.75;96216.13;10370000;28;20972;-74
2022/11/08 22:17:27;;;;;;;5.83;2.90;;;;;;;10.50;90.26;96220.25;10352350;28;20193;-74
2022/11/08 22:22:28;;;;;;;4.43;2.93;;;;;;;10.59;89.91;96215.81;10369561;28;20196;-74
2022/11/08 22:27:28;;;;;;;3.30;2.60;;;;;;;10.58;89.56;96208.91;10369294;28;20216;-74
2022/11/08 22:32:28;;;;;;;2.27;1.87;;;;;;;10.58;89.66;96196.66;10369591;28;20281;-73
2022/11/08 22:37:29;;;;;;;5.30;2.70;;;;;;;10.65;89.18;96200.22;10380541;28;20245;-74
2022/11/08 22:42:29;;;;;;;6.07;3.47;;;;;;;10.63;89.23;96199.56;10369688;28;20189;-74
2022/11/08 22:47:30;;;;;;;3.10;2.67;;;;;;;10.65;87.98;96194.97;10368645;28;20217;-73
2022/11/08 22:52:30;;;;;;;8.70;3.90;;;;;;;10.61;89.43;96198.09;10368997;28;20189;-74
2022/11/08 22:57:30;;;;;;;5.90;4.00;;;;;;;10.66;88.25;96193.19;10369224;28;20207;-74
2022/11/08 23:02:31;;;;;;;6.40;3.60;;;;;;;10.63;88.48;96194.34;10368696;28;20193;-74
2022/11/08 23:07:31;;;;;;;7.60;3.57;;;;;;;10.69;88.38;96198.91;10369006;28;20209;-74
2022/11/08 23:17:50;;;;;;;5.47;4.30;;;;;;;10.67;89.34;96200.88;10368535;28;20196;-74
2022/11/08 23:33:28;;;;;;;9.43;6.07;;;;;;;10.57;90.44;96200.25;10368166;28;20197;-74
2022/11/08 23:38:28;;;;;;;14.63;6.70;;;;;;;10.56;90.71;96195.19;10367823;28;20590;-74
2022/11/08 23:48:47;;;;;;;10.73;7.40;;;;;;;10.40;91.83;96196.03;10375128;28;20255;-74
2022/11/08 23:53:48;;;;;;;9.37;6.70;;;;;;;10.42;92.31;96196.72;10375595;28;20251;-74
2022/11/08 23:58:49;;;;;;;10.70;7.37;;;;;;;10.44;91.68;96200.78;10374406;28;20842;-74
